createdAt,value
2019-03-16T00:01:12.693Z,90.60
2019-03-16T00:03:41.329Z,90.70
2019-03-16T00:06:10.632Z,91.20
2019-03-16T00:08:39.966Z,91.20
2019-03-16T00:11:09.260Z,91.30
2019-03-16T00:13:38.599Z,91.40
2019-03-16T00:16:07.962Z,91.40
2019-03-16T00:18:37.295Z,91.50
2019-03-16T00:21:06.604Z,91.50
2019-03-16T00:23:35.950Z,91.50
2019-03-16T00:26:05.259Z,91.90
2019-03-16T00:28:34.581Z,92.00
2019-03-16T00:31:03.897Z,92.10
2019-03-16T00:33:33.224Z,92.20
2019-03-16T00:36:02.529Z,92.80
2019-03-16T00:38:31.918Z,92.60
2019-03-16T00:41:01.217Z,93.00
2019-03-16T00:43:30.556Z,92.70
2019-03-16T00:45:59.844Z,92.90
2019-03-16T00:48:29.186Z,92.70
2019-03-16T00:50:58.483Z,92.80
2019-03-16T00:53:27.811Z,93.00
2019-03-16T00:55:57.144Z,93.10
2019-03-16T00:58:26.452Z,93.10
2019-03-16T01:00:55.820Z,92.50
2019-03-16T01:03:25.143Z,92.50
2019-03-16T01:05:54.447Z,92.80
2019-03-16T01:08:25.377Z,92.90
2019-03-16T01:10:54.674Z,92.70
2019-03-16T01:13:24.008Z,93.00
2019-03-16T01:15:53.310Z,93.10
2019-03-16T01:18:22.637Z,92.40
2019-03-16T01:20:51.937Z,92.30
2019-03-16T01:23:21.262Z,92.70
2019-03-16T01:25:50.604Z,92.30
2019-03-16T01:28:19.921Z,92.50
2019-03-16T01:30:49.218Z,92.00
2019-03-16T01:33:18.878Z,91.90
2019-03-16T01:35:48.193Z,92.10
2019-03-16T01:38:17.509Z,92.10
2019-03-16T01:40:46.801Z,91.80
2019-03-16T01:43:16.371Z,91.60
2019-03-16T01:45:45.688Z,92.00
2019-03-16T01:48:15.028Z,91.70
2019-03-16T01:50:44.412Z,91.80
2019-03-16T01:53:14.797Z,91.80
2019-03-16T01:55:44.119Z,91.50
2019-03-16T01:58:13.416Z,91.60
2019-03-16T02:00:42.743Z,91.40
2019-03-16T02:03:13.149Z,91.50
2019-03-16T02:05:42.472Z,91.30
2019-03-16T02:08:11.768Z,91.30
2019-03-16T02:10:41.088Z,91.50
2019-03-16T02:13:10.385Z,91.10
2019-03-16T02:15:39.768Z,90.60
2019-03-16T02:18:09.092Z,90.90
2019-03-16T02:20:39.481Z,90.80
2019-03-16T02:23:08.814Z,90.80
2019-03-16T02:25:38.114Z,90.40
2019-03-16T02:28:07.495Z,90.20
2019-03-16T02:30:36.966Z,90.40
2019-03-16T02:33:13.400Z,90.40
2019-03-16T02:35:38.469Z,90.40
2019-03-16T02:38:08.849Z,90.70
2019-03-16T02:40:50.895Z,90.50
2019-03-16T02:43:20.220Z,90.20
2019-03-16T02:45:49.605Z,90.40
2019-03-16T02:48:18.900Z,90.60
2019-03-16T02:50:48.233Z,90.50
2019-03-16T02:53:17.527Z,90.50
2019-03-16T02:55:46.993Z,90.50
2019-03-16T02:58:16.372Z,90.30
2019-03-16T03:00:45.800Z,90.20
2019-03-16T03:03:28.616Z,90.30
2019-03-16T03:05:46.115Z,90.20
2019-03-16T03:08:15.412Z,89.90
2019-03-16T03:10:44.744Z,90.00
2019-03-16T03:13:14.206Z,89.70
2019-03-16T03:15:43.950Z,89.90
2019-03-16T03:18:13.277Z,89.80
2019-03-16T03:20:42.630Z,89.00
2019-03-16T03:23:11.995Z,88.40
2019-03-16T03:25:41.297Z,88.90
2019-03-16T03:28:29.957Z,87.70
2019-03-16T03:30:59.273Z,88.10
2019-03-16T03:33:56.090Z,88.00
2019-03-16T03:35:59.586Z,88.30
2019-03-16T03:38:28.894Z,88.20
2019-03-16T03:41:01.600Z,88.60
2019-03-16T03:43:29.335Z,88.20
2019-03-16T03:45:58.644Z,87.60
2019-03-16T03:48:28.004Z,87.60
2019-03-16T03:50:57.374Z,87.60
2019-03-16T03:53:26.754Z,87.70
2019-03-16T03:55:56.060Z,87.80
2019-03-16T03:58:25.530Z,87.60
2019-03-16T04:00:54.843Z,87.10
2019-03-16T04:03:25.382Z,87.50
2019-03-16T04:05:54.756Z,87.50
2019-03-16T04:08:25.153Z,87.10
2019-03-16T04:10:54.534Z,86.70
2019-03-16T04:13:23.855Z,86.80
2019-03-16T04:15:53.232Z,87.40
2019-03-16T04:18:22.669Z,87.70
2019-03-16T04:20:52.133Z,87.80
2019-03-16T04:23:21.432Z,87.50
2019-03-16T04:25:50.752Z,87.30
2019-03-16T04:28:20.051Z,87.40
2019-03-16T04:30:49.378Z,87.60
2019-03-16T04:33:18.682Z,88.00
2019-03-16T04:35:48.000Z,88.10
2019-03-16T04:38:17.301Z,89.80
2019-03-16T04:40:46.625Z,88.40
2019-03-16T04:43:15.969Z,88.70
2019-03-16T04:45:45.266Z,88.90
2019-03-16T04:48:14.591Z,89.50
2019-03-16T04:50:43.907Z,88.60
2019-03-16T04:53:13.325Z,89.40
2019-03-16T04:55:42.717Z,89.40
2019-03-16T04:58:12.045Z,89.20
2019-03-16T05:00:41.433Z,89.00
2019-03-16T05:03:10.749Z,88.50
2019-03-16T05:05:40.069Z,88.60
2019-03-16T05:08:09.458Z,89.20
2019-03-16T05:10:39.011Z,89.50
2019-03-16T05:13:08.336Z,89.40
2019-03-16T05:15:37.657Z,89.10
2019-03-16T05:18:06.970Z,88.40
2019-03-16T05:20:36.302Z,88.40
2019-03-16T05:23:05.784Z,88.30
2019-03-16T05:25:35.100Z,88.60
2019-03-16T05:28:04.436Z,87.70
2019-03-16T05:30:33.732Z,87.20
2019-03-16T05:33:03.066Z,86.60
2019-03-16T05:35:32.436Z,86.50
2019-03-16T05:38:01.852Z,86.60
2019-03-16T05:40:31.238Z,86.50
2019-03-16T05:43:00.612Z,87.00
2019-03-16T05:45:29.991Z,86.90
2019-03-16T05:47:59.289Z,86.50
2019-03-16T05:50:28.616Z,86.50
2019-03-16T05:52:58.241Z,86.60
2019-03-16T05:55:27.540Z,86.30
2019-03-16T05:57:56.870Z,86.20
2019-03-16T06:00:26.193Z,86.20
2019-03-16T06:02:55.535Z,86.10
2019-03-16T06:05:24.902Z,86.10
2019-03-16T06:07:54.228Z,86.10
2019-03-16T06:10:23.522Z,85.70
2019-03-16T06:12:52.866Z,85.90
2019-03-16T06:15:22.167Z,85.80
2019-03-16T06:17:51.490Z,85.90
2019-03-16T06:20:20.816Z,86.10
2019-03-16T06:22:50.135Z,86.10
2019-03-16T06:25:19.443Z,86.00
2019-03-16T06:27:48.764Z,87.10
2019-03-16T06:30:20.701Z,85.80
2019-03-16T06:32:49.116Z,85.70
2019-03-16T06:35:24.562Z,86.10
2019-03-16T06:37:49.428Z,85.20
2019-03-16T06:40:18.752Z,85.00
2019-03-16T06:42:48.051Z,84.70
2019-03-16T06:45:17.395Z,85.40
2019-03-16T06:47:46.767Z,85.00
2019-03-16T06:50:16.438Z,84.90
2019-03-16T06:52:46.041Z,84.80
2019-03-16T06:55:15.415Z,84.40
2019-03-16T06:57:44.714Z,83.60
2019-03-16T07:00:15.583Z,83.70
2019-03-16T07:02:44.916Z,83.10
2019-03-16T07:05:14.509Z,83.10
2019-03-16T07:07:44.980Z,83.00
2019-03-16T07:10:14.846Z,83.20
2019-03-16T07:12:44.158Z,83.50
2019-03-16T07:15:14.528Z,82.50
2019-03-16T07:17:43.822Z,82.90
2019-03-16T07:20:14.714Z,82.20
2019-03-16T07:22:44.025Z,82.20
2019-03-16T07:25:13.378Z,82.10
2019-03-16T07:27:42.911Z,82.40
2019-03-16T07:30:13.583Z,81.80
2019-03-16T07:32:42.994Z,82.10
2019-03-16T07:35:12.527Z,82.50
2019-03-16T07:37:41.861Z,82.00
2019-03-16T07:40:14.965Z,82.50
2019-03-16T07:42:44.281Z,82.50
2019-03-16T07:45:13.841Z,81.80
2019-03-16T07:47:43.537Z,82.50
2019-03-16T07:50:13.834Z,81.70
2019-03-16T07:52:43.382Z,81.80
2019-03-16T07:55:12.863Z,81.50
2019-03-16T07:57:42.199Z,81.20
2019-03-16T08:00:12.537Z,81.90
2019-03-16T08:02:42.862Z,81.70
2019-03-16T08:05:18.681Z,81.40
2019-03-16T08:07:43.307Z,82.00
2019-03-16T08:10:12.839Z,80.80
2019-03-16T08:12:42.199Z,79.80
2019-03-16T08:15:11.941Z,79.90
2019-03-16T08:17:41.322Z,79.10
2019-03-16T08:20:11.365Z,80.10
2019-03-16T08:22:40.663Z,81.30
2019-03-16T08:25:10.243Z,81.00
2019-03-16T08:27:53.016Z,80.90
2019-03-16T08:30:12.412Z,81.70
2019-03-16T08:32:41.736Z,79.80
2019-03-16T08:35:11.197Z,80.80
2019-03-16T08:37:40.526Z,80.40
2019-03-16T08:40:12.904Z,79.80
2019-03-16T08:42:42.246Z,79.50
2019-03-16T08:45:12.008Z,80.60
2019-03-16T08:47:41.319Z,80.40
2019-03-16T08:50:11.424Z,81.20
2019-03-16T08:52:40.785Z,80.20
2019-03-16T08:55:10.478Z,82.40
2019-03-16T08:57:39.814Z,84.20
2019-03-16T09:00:11.121Z,84.00
2019-03-16T09:02:40.454Z,83.50
2019-03-16T09:05:09.868Z,82.60
2019-03-16T09:07:39.250Z,83.40
2019-03-16T09:10:09.985Z,83.80
2019-03-16T09:12:39.289Z,82.80
2019-03-16T09:15:11.459Z,82.00
2019-03-16T09:17:40.966Z,82.60
2019-03-16T09:20:10.507Z,81.80
2019-03-16T09:22:39.835Z,81.30
2019-03-16T09:25:10.072Z,82.10
2019-03-16T09:27:39.464Z,80.50
2019-03-16T09:30:13.875Z,77.60
2019-03-16T09:32:43.194Z,76.30
2019-03-16T09:35:12.715Z,76.40
2019-03-16T09:37:42.038Z,75.00
2019-03-16T09:40:11.680Z,74.90
2019-03-16T09:42:41.014Z,73.20
2019-03-16T09:45:12.517Z,73.80
2019-03-16T09:47:41.923Z,75.50
2019-03-16T09:50:11.741Z,74.30
2019-03-16T09:52:41.034Z,73.10
2019-03-16T09:55:13.621Z,73.20
2019-03-16T09:57:42.915Z,72.70
2019-03-16T10:00:17.024Z,72.60
2019-03-16T10:02:46.320Z,71.90
2019-03-16T10:05:15.651Z,70.20
2019-03-16T10:07:45.517Z,69.10
2019-03-16T10:10:15.607Z,69.60
2019-03-16T10:12:44.910Z,68.10
2019-03-16T10:15:15.664Z,67.10
2019-03-16T10:17:44.994Z,66.40
2019-03-16T10:20:14.760Z,67.00
2019-03-16T10:22:44.236Z,63.90
2019-03-16T10:25:13.612Z,64.80
2019-03-16T10:27:42.961Z,62.80
2019-03-16T10:30:13.802Z,65.00
2019-03-16T10:32:43.195Z,62.90
2019-03-16T10:35:12.589Z,64.00
2019-03-16T10:37:41.892Z,63.00
2019-03-16T10:40:12.362Z,63.10
2019-03-16T10:42:40.952Z,62.70
2019-03-16T10:45:11.340Z,61.30
2019-03-16T10:47:40.907Z,60.40
2019-03-16T10:50:12.746Z,61.30
2019-03-16T10:52:42.120Z,59.90
2019-03-16T10:55:11.577Z,61.80
2019-03-16T10:57:40.905Z,60.40
2019-03-16T11:00:17.250Z,59.20
2019-03-16T11:02:46.563Z,59.10
2019-03-16T11:05:16.022Z,57.90
2019-03-16T11:07:45.339Z,56.50
2019-03-16T11:10:34.063Z,56.30
2019-03-16T11:13:03.354Z,57.20
2019-03-16T11:15:32.798Z,57.00
2019-03-16T11:18:02.133Z,58.30
2019-03-16T11:20:31.433Z,56.50
2019-03-16T11:23:00.754Z,54.50
2019-03-16T11:25:30.084Z,53.50
2019-03-16T11:27:59.380Z,54.90
2019-03-16T11:30:28.717Z,53.70
2019-03-16T11:32:58.048Z,54.50
2019-03-16T11:35:27.430Z,54.10
2019-03-16T11:37:56.823Z,54.30
2019-03-16T11:40:26.117Z,54.60
2019-03-16T11:42:55.424Z,54.10
2019-03-16T11:45:24.748Z,55.00
2019-03-16T11:47:54.047Z,54.80
2019-03-16T11:50:23.597Z,54.20
2019-03-16T11:52:52.970Z,53.90
2019-03-16T11:55:23.236Z,52.30
2019-03-16T11:57:52.569Z,50.20
2019-03-16T12:00:21.936Z,50.30
2019-03-16T12:02:52.922Z,49.70
2019-03-16T12:05:27.976Z,49.90
2019-03-16T12:08:07.685Z,52.00
2019-03-16T12:10:48.530Z,48.20
2019-03-16T12:13:34.614Z,46.00
2019-03-16T12:16:10.801Z,43.90
2019-03-16T12:18:52.638Z,42.50
2019-03-16T12:21:46.233Z,41.20
2019-03-16T12:24:15.539Z,42.30
2019-03-16T12:26:44.891Z,45.90
2019-03-16T12:29:14.224Z,45.90
2019-03-16T12:31:43.525Z,44.30
2019-03-16T12:34:12.865Z,44.40
2019-03-16T12:36:42.173Z,40.90
2019-03-16T12:39:11.776Z,40.50
2019-03-16T12:41:41.074Z,41.10
2019-03-16T12:44:10.391Z,38.60
2019-03-16T12:46:39.730Z,40.00
2019-03-16T12:49:09.026Z,37.70
2019-03-16T12:51:38.353Z,38.90
2019-03-16T12:54:07.760Z,39.60
2019-03-16T12:56:37.141Z,39.80
2019-03-16T12:59:10.882Z,40.30
2019-03-16T13:01:38.744Z,41.10
2019-03-16T13:04:08.153Z,41.50
2019-03-16T13:06:37.487Z,41.60
2019-03-16T13:09:07.837Z,42.30
2019-03-16T13:11:37.272Z,40.10
2019-03-16T13:14:07.760Z,40.60
2019-03-16T13:16:37.389Z,40.20
2019-03-16T13:19:06.878Z,39.40
2019-03-16T13:21:36.175Z,39.10
2019-03-16T13:25:30.980Z,42.00
2019-03-16T13:28:00.385Z,41.50
2019-03-16T13:30:29.696Z,39.10
2019-03-16T13:32:58.996Z,39.00
2019-03-16T13:35:28.327Z,40.00
2019-03-16T13:37:58.699Z,37.90
2019-03-16T13:40:28.036Z,37.00
2019-03-16T13:42:57.506Z,36.70
2019-03-16T13:45:26.961Z,35.50
2019-03-16T13:47:56.351Z,34.80
2019-03-16T13:50:25.687Z,36.00
2019-03-16T13:52:55.250Z,36.90
2019-03-16T13:55:24.903Z,38.00
2019-03-16T13:57:54.218Z,38.00
2019-03-16T14:00:23.890Z,37.10
2019-03-16T14:02:53.216Z,38.70
2019-03-16T14:05:22.599Z,37.30
2019-03-16T14:07:51.928Z,38.30
2019-03-16T14:10:44.986Z,38.50
2019-03-16T14:13:14.561Z,40.00
2019-03-16T14:15:43.872Z,38.30
2019-03-16T14:18:13.199Z,39.00
2019-03-16T14:20:42.516Z,39.60
2019-03-16T14:23:11.871Z,39.80
2019-03-16T14:25:41.551Z,39.00
2019-03-16T14:28:10.856Z,38.50
2019-03-16T14:30:43.800Z,40.00
2019-03-16T14:33:12.320Z,41.50
2019-03-16T14:35:41.657Z,41.80
2019-03-16T14:38:10.963Z,43.00
2019-03-16T14:40:40.303Z,43.20
2019-03-16T14:43:11.390Z,42.90
2019-03-16T14:45:40.826Z,42.90
2019-03-16T14:48:10.117Z,44.10
2019-03-16T14:50:39.439Z,44.30
2019-03-16T14:53:08.789Z,46.50
2019-03-16T14:55:39.308Z,45.60
2019-03-16T14:58:08.662Z,46.30
2019-03-16T15:00:39.019Z,47.40
2019-03-16T15:03:07.705Z,48.60
2019-03-16T15:05:36.959Z,49.20
2019-03-16T15:08:06.272Z,49.10
2019-03-16T15:10:54.913Z,50.20
2019-03-16T15:13:26.797Z,50.80
2019-03-16T15:15:55.269Z,49.60
2019-03-16T15:18:24.659Z,49.80
2019-03-16T15:20:53.990Z,50.20
2019-03-16T15:23:23.308Z,51.80
2019-03-16T15:25:52.694Z,52.00
2019-03-16T15:28:22.025Z,51.00
2019-03-16T15:30:51.357Z,51.20
2019-03-16T15:33:20.851Z,51.40
2019-03-16T15:35:50.154Z,52.20
2019-03-16T15:38:19.490Z,52.30
2019-03-16T15:40:48.819Z,52.50
2019-03-16T15:43:18.165Z,52.20
2019-03-16T15:45:47.468Z,52.80
2019-03-16T15:48:16.803Z,52.50
2019-03-16T15:50:46.117Z,52.20
2019-03-16T15:53:25.949Z,51.80
2019-03-16T15:55:55.236Z,51.90
2019-03-16T15:58:24.650Z,52.20
2019-03-16T16:01:02.977Z,53.00
2019-03-16T16:03:25.174Z,53.40
2019-03-16T16:05:56.325Z,53.40
2019-03-16T16:08:26.225Z,53.90
2019-03-16T16:11:00.984Z,55.20
2019-03-16T16:13:26.556Z,54.70
2019-03-16T16:15:55.867Z,55.60
2019-03-16T16:18:25.180Z,55.30
2019-03-16T16:20:54.512Z,55.90
2019-03-16T16:23:23.881Z,55.90
2019-03-16T16:25:53.205Z,55.90
2019-03-16T16:28:22.561Z,56.00
2019-03-16T16:30:51.883Z,57.40
2019-03-16T16:33:21.182Z,58.10
2019-03-16T16:35:50.515Z,59.30
2019-03-16T16:38:19.817Z,59.30
2019-03-16T16:40:49.226Z,60.50
2019-03-16T16:43:18.708Z,59.10
2019-03-16T16:45:48.153Z,59.20
2019-03-16T16:48:17.809Z,62.10
2019-03-16T16:50:47.055Z,62.80
2019-03-16T16:53:16.466Z,62.30
2019-03-16T16:55:45.841Z,64.20
2019-03-16T16:58:15.188Z,63.60
2019-03-16T17:00:44.498Z,63.90
2019-03-16T17:03:14.159Z,64.70
2019-03-16T17:05:43.678Z,65.80
2019-03-16T17:08:13.023Z,65.90
2019-03-16T17:10:42.365Z,66.70
2019-03-16T17:13:13.046Z,67.40
2019-03-16T17:15:42.373Z,68.10
2019-03-16T17:18:11.683Z,68.70
2019-03-16T17:20:41.010Z,69.40
2019-03-16T17:23:11.862Z,70.40
2019-03-16T17:25:41.280Z,71.30
2019-03-16T17:28:10.580Z,72.60
2019-03-16T17:30:39.906Z,73.60
2019-03-16T17:33:09.211Z,74.40
2019-03-16T17:35:38.546Z,74.20
2019-03-16T17:38:07.854Z,74.40
2019-03-16T17:40:37.174Z,75.10
2019-03-16T17:43:06.581Z,75.60
2019-03-16T17:45:36.033Z,76.60
2019-03-16T17:48:05.512Z,77.30
2019-03-16T17:50:34.811Z,77.10
2019-03-16T17:53:04.137Z,77.80
2019-03-16T17:55:33.479Z,77.70
2019-03-16T17:58:02.863Z,78.20
2019-03-16T18:00:32.263Z,78.90
2019-03-16T18:03:01.593Z,79.40
2019-03-16T18:05:30.900Z,79.80
2019-03-16T18:08:00.252Z,80.20
2019-03-16T18:10:29.563Z,80.80
2019-03-16T18:12:58.958Z,81.90
2019-03-16T18:22:29.004Z,82.70
2019-03-16T18:24:58.349Z,83.10
2019-03-16T18:27:27.685Z,83.70
2019-03-16T18:29:57.005Z,83.60
2019-03-16T18:32:26.351Z,83.80
2019-03-16T18:34:55.941Z,83.40
2019-03-16T18:37:27.225Z,83.20
2019-03-16T18:39:56.865Z,83.60
2019-03-16T18:42:27.936Z,84.20
2019-03-16T18:44:57.357Z,83.60
2019-03-16T18:47:26.675Z,84.40
2019-03-16T18:49:55.977Z,84.90
2019-03-16T18:52:25.320Z,85.60
2019-03-16T18:54:54.618Z,85.50
2019-03-16T18:57:23.923Z,86.00
2019-03-16T18:59:53.270Z,85.30
2019-03-16T19:02:22.603Z,86.40
2019-03-16T19:05:04.615Z,86.70
2019-03-16T19:07:33.898Z,87.10
2019-03-16T19:10:04.348Z,87.80
2019-03-16T19:12:33.642Z,88.60
2019-03-16T19:15:02.958Z,88.60
2019-03-16T19:17:32.527Z,87.90
2019-03-16T19:20:01.875Z,88.30
2019-03-16T19:22:31.216Z,88.80
2019-03-16T19:25:00.674Z,89.50
2019-03-16T19:27:31.236Z,89.50
2019-03-16T19:30:00.629Z,89.50
2019-03-16T19:32:33.906Z,89.50
2019-03-16T19:35:01.503Z,89.60
2019-03-16T19:37:31.895Z,88.60
2019-03-16T19:40:01.282Z,89.30
2019-03-16T19:42:30.879Z,90.00
2019-03-16T19:45:00.429Z,90.00
2019-03-16T19:47:29.801Z,89.60
2019-03-16T19:49:59.477Z,90.00
2019-03-16T19:52:28.851Z,90.10
2019-03-16T19:55:01.453Z,90.20
2019-03-16T19:57:31.956Z,90.60
2019-03-16T20:00:01.903Z,90.20
2019-03-16T20:02:31.300Z,90.40
2019-03-16T20:05:00.645Z,90.40
2019-03-16T20:07:30.072Z,90.70
2019-03-16T20:09:59.366Z,90.60
2019-03-16T20:12:41.096Z,90.40
2019-03-16T20:15:12.176Z,90.10
2019-03-16T20:17:41.554Z,90.70
2019-03-16T20:20:12.945Z,90.50
2019-03-16T20:22:42.495Z,90.80
2019-03-16T20:25:12.041Z,90.90
2019-03-16T20:27:41.362Z,91.00
2019-03-16T20:30:15.296Z,91.00
2019-03-16T20:32:48.594Z,91.30
2019-03-16T20:35:17.026Z,91.40
2019-03-16T20:37:46.359Z,91.40
2019-03-16T20:40:18.918Z,91.30
2019-03-16T20:42:48.284Z,91.30
2019-03-16T20:45:17.793Z,91.20
2019-03-16T20:47:47.452Z,91.30
2019-03-16T20:50:17.793Z,91.20
2019-03-16T20:52:47.258Z,91.30
2019-03-16T20:55:16.778Z,91.10
2019-03-16T20:57:46.254Z,90.90
2019-03-16T21:00:19.469Z,90.60
2019-03-16T21:02:48.851Z,90.80
2019-03-16T21:05:18.187Z,90.80
2019-03-16T21:07:47.678Z,91.00
2019-03-16T21:10:17.042Z,91.10
2019-03-16T21:12:46.664Z,91.10
2019-03-16T21:15:19.654Z,91.10
2019-03-16T21:17:48.985Z,90.60
2019-03-16T21:20:19.399Z,90.80
2019-03-16T21:22:48.794Z,90.80
2019-03-16T21:25:18.461Z,90.80
2019-03-16T21:27:47.995Z,90.80
2019-03-16T21:30:21.713Z,90.80
2019-03-16T21:32:51.193Z,90.80
2019-03-16T21:35:20.588Z,90.80
2019-03-16T21:37:49.882Z,90.80
2019-03-16T21:40:19.288Z,91.10
2019-03-16T21:42:48.658Z,90.70
2019-03-16T21:45:17.972Z,90.60
2019-03-16T21:47:59.100Z,90.50
2019-03-16T21:50:18.292Z,90.50
2019-03-16T21:52:47.649Z,90.60
2019-03-16T21:55:16.967Z,90.50
2019-03-16T21:57:46.336Z,90.60
2019-03-16T22:00:17.775Z,91.00
2019-03-16T22:02:47.092Z,91.00
2019-03-16T22:05:16.569Z,91.00
2019-03-16T22:07:45.928Z,90.90
2019-03-16T22:10:16.840Z,91.20
2019-03-16T22:12:46.237Z,91.30
2019-03-16T22:15:16.584Z,91.30
2019-03-16T22:17:47.213Z,91.20
2019-03-16T22:20:18.530Z,91.30
2019-03-16T22:22:47.927Z,91.30
2019-03-16T22:25:17.338Z,91.40
2019-03-16T22:27:46.623Z,91.40
2019-03-16T22:30:18.665Z,91.70
2019-03-16T22:32:47.959Z,92.00
2019-03-16T22:35:17.287Z,91.80
2019-03-16T22:37:46.592Z,91.90
2019-03-16T22:40:16.154Z,92.00
2019-03-16T22:42:45.476Z,92.00
2019-03-16T22:45:15.134Z,91.90
2019-03-16T22:47:44.443Z,91.90
2019-03-16T22:50:20.857Z,91.80
2019-03-16T22:52:50.229Z,92.30
2019-03-16T22:55:19.553Z,92.10
2019-03-16T22:57:48.843Z,92.10
2019-03-16T23:00:21.546Z,92.60
2019-03-16T23:02:52.559Z,92.60
2019-03-16T23:05:21.922Z,92.70
2019-03-16T23:07:51.242Z,92.70
2019-03-16T23:10:20.564Z,92.90
2019-03-16T23:12:51.497Z,92.80
2019-03-16T23:15:20.808Z,92.70
2019-03-16T23:17:52.705Z,92.50
2019-03-16T23:20:21.295Z,92.60
2019-03-16T23:22:50.588Z,92.80
2019-03-16T23:25:19.935Z,92.80
2019-03-16T23:27:49.313Z,92.50
2019-03-16T23:30:18.865Z,92.50
2019-03-16T23:32:48.240Z,92.60
2019-03-16T23:35:17.618Z,92.80
2019-03-16T23:37:46.946Z,92.80
2019-03-16T23:40:16.340Z,92.90
2019-03-16T23:42:45.659Z,92.70
2019-03-16T23:45:15.221Z,92.60
2019-03-16T23:47:44.552Z,92.50
2019-03-16T23:50:14.711Z,92.70
2019-03-16T23:52:44.004Z,92.50
2019-03-16T23:55:13.460Z,92.50
2019-03-16T23:57:42.776Z,92.60
